sensor_id;sensor_type;location;lat;lon;timestamp;P1;durP1;ratioP1;P2;durP2;ratioP2
66739;SDS011;53653;52.188;8.602;2023-03-01T00:00:38;39.00;;;17.57;;
66739;SDS011;53653;52.188;8.602;2023-03-01T00:03:04;42.83;;;18.40;;
66739;SDS011;53653;52.188;8.602;2023-03-01T00:05:29;37.65;;;18.42;;
66739;SDS011;53653;52.188;8.602;2023-03-01T00:07:55;38.83;;;19.37;;
66739;SDS011;53653;52.188;8.602;2023-03-01T00:10:20;37.47;;;16.93;;
66739;SDS011;53653;52.188;8.602;2023-03-01T00:12:46;45.17;;;19.00;;
66739;SDS011;53653;52.188;8.602;2023-03-01T00:15:11;37.20;;;17.63;;
66739;SDS011;53653;52.188;8.602;2023-03-01T00:17:37;35.57;;;17.57;;
66739;SDS011;53653;52.188;8.602;2023-03-01T00:20:03;39.97;;;18.08;;
66739;SDS011;53653;52.188;8.602;2023-03-01T00:22:33;43.88;;;19.17;;
66739;SDS011;53653;52.188;8.602;2023-03-01T00:24:59;56.60;;;25.03;;
66739;SDS011;53653;52.188;8.602;2023-03-01T00:27:24;48.13;;;23.60;;
66739;SDS011;53653;52.188;8.602;2023-03-01T00:29:50;48.53;;;21.73;;
66739;SDS011;53653;52.188;8.602;2023-03-01T00:32:15;39.83;;;18.23;;
66739;SDS011;53653;52.188;8.602;2023-03-01T00:34:41;42.13;;;18.70;;
66739;SDS011;53653;52.188;8.602;2023-03-01T00:37:06;43.80;;;18.77;;
66739;SDS011;53653;52.188;8.602;2023-03-01T00:39:32;38.07;;;19.27;;
66739;SDS011;53653;52.188;8.602;2023-03-01T00:41:59;42.60;;;19.13;;
66739;SDS011;53653;52.188;8.602;2023-03-01T00:44:24;36.42;;;17.58;;
66739;SDS011;53653;52.188;8.602;2023-03-01T00:46:50;39.00;;;17.87;;
66739;SDS011;53653;52.188;8.602;2023-03-01T00:49:16;42.30;;;19.00;;
66739;SDS011;53653;52.188;8.602;2023-03-01T00:51:41;46.03;;;19.63;;
66739;SDS011;53653;52.188;8.602;2023-03-01T00:54:07;40.37;;;19.10;;
66739;SDS011;53653;52.188;8.602;2023-03-01T00:56:33;41.13;;;19.80;;
66739;SDS011;53653;52.188;8.602;2023-03-01T00:58:59;39.95;;;19.30;;
66739;SDS011;53653;52.188;8.602;2023-03-01T01:01:26;35.33;;;19.07;;
66739;SDS011;53653;52.188;8.602;2023-03-01T01:03:58;42.17;;;19.95;;
66739;SDS011;53653;52.188;8.602;2023-03-01T01:06:27;42.28;;;20.25;;
66739;SDS011;53653;52.188;8.602;2023-03-01T01:08:55;38.60;;;19.95;;
66739;SDS011;53653;52.188;8.602;2023-03-01T01:11:22;39.53;;;19.52;;
66739;SDS011;53653;52.188;8.602;2023-03-01T01:13:49;40.23;;;19.30;;
66739;SDS011;53653;52.188;8.602;2023-03-01T01:16:16;40.20;;;19.55;;
66739;SDS011;53653;52.188;8.602;2023-03-01T01:18:43;44.17;;;19.55;;
66739;SDS011;53653;52.188;8.602;2023-03-01T01:21:11;43.45;;;20.15;;
66739;SDS011;53653;52.188;8.602;2023-03-01T01:23:38;41.40;;;19.00;;
66739;SDS011;53653;52.188;8.602;2023-03-01T01:26:09;40.43;;;19.60;;
66739;SDS011;53653;52.188;8.602;2023-03-01T01:28:37;40.05;;;19.42;;
66739;SDS011;53653;52.188;8.602;2023-03-01T01:31:03;41.10;;;19.63;;
66739;SDS011;53653;52.188;8.602;2023-03-01T01:33:29;40.90;;;20.20;;
66739;SDS011;53653;52.188;8.602;2023-03-01T01:35:55;38.50;;;18.27;;
66739;SDS011;53653;52.188;8.602;2023-03-01T01:38:21;35.92;;;18.42;;
66739;SDS011;53653;52.188;8.602;2023-03-01T01:40:47;39.50;;;17.73;;
66739;SDS011;53653;52.188;8.602;2023-03-01T01:43:21;34.63;;;16.75;;
66739;SDS011;53653;52.188;8.602;2023-03-01T01:45:49;35.05;;;16.88;;
66739;SDS011;53653;52.188;8.602;2023-03-01T01:48:26;33.13;;;15.53;;
66739;SDS011;53653;52.188;8.602;2023-03-01T01:51:05;34.90;;;15.45;;
66739;SDS011;53653;52.188;8.602;2023-03-01T01:53:38;33.65;;;15.30;;
66739;SDS011;53653;52.188;8.602;2023-03-01T01:56:05;29.65;;;15.38;;
66739;SDS011;53653;52.188;8.602;2023-03-01T01:58:33;29.90;;;14.88;;
66739;SDS011;53653;52.188;8.602;2023-03-01T02:00:59;29.10;;;14.57;;
66739;SDS011;53653;52.188;8.602;2023-03-01T02:03:28;30.98;;;14.02;;
66739;SDS011;53653;52.188;8.602;2023-03-01T02:06:03;29.45;;;14.45;;
66739;SDS011;53653;52.188;8.602;2023-03-01T02:08:36;31.63;;;13.37;;
66739;SDS011;53653;52.188;8.602;2023-03-01T02:11:03;27.13;;;13.43;;
66739;SDS011;53653;52.188;8.602;2023-03-01T02:13:32;28.30;;;14.88;;
66739;SDS011;53653;52.188;8.602;2023-03-01T02:15:58;29.42;;;14.80;;
66739;SDS011;53653;52.188;8.602;2023-03-01T02:18:27;38.10;;;15.68;;
66739;SDS011;53653;52.188;8.602;2023-03-01T02:21:08;33.73;;;15.13;;
66739;SDS011;53653;52.188;8.602;2023-03-01T02:23:37;39.53;;;16.38;;
66739;SDS011;53653;52.188;8.602;2023-03-01T02:26:11;31.55;;;15.35;;
66739;SDS011;53653;52.188;8.602;2023-03-01T02:28:46;34.87;;;15.10;;
66739;SDS011;53653;52.188;8.602;2023-03-01T02:31:14;33.10;;;15.50;;
66739;SDS011;53653;52.188;8.602;2023-03-01T02:34:00;27.70;;;13.82;;
66739;SDS011;53653;52.188;8.602;2023-03-01T02:36:51;26.52;;;12.75;;
66739;SDS011;53653;52.188;8.602;2023-03-01T02:39:21;25.67;;;11.27;;
66739;SDS011;53653;52.188;8.602;2023-03-01T02:41:52;16.37;;;9.13;;
66739;SDS011;53653;52.188;8.602;2023-03-01T02:44:21;23.88;;;12.73;;
66739;SDS011;53653;52.188;8.602;2023-03-01T02:46:48;29.38;;;13.60;;
66739;SDS011;53653;52.188;8.602;2023-03-01T02:49:26;26.17;;;12.93;;
66739;SDS011;53653;52.188;8.602;2023-03-01T02:57:40;28.75;;;13.35;;
66739;SDS011;53653;52.188;8.602;2023-03-01T03:00:09;27.20;;;13.52;;
66739;SDS011;53653;52.188;8.602;2023-03-01T03:02:45;30.15;;;13.60;;
66739;SDS011;53653;52.188;8.602;2023-03-01T03:05:19;30.85;;;15.50;;
66739;SDS011;53653;52.188;8.602;2023-03-01T03:07:51;28.37;;;13.73;;
66739;SDS011;53653;52.188;8.602;2023-03-01T03:10:25;31.60;;;13.38;;
66739;SDS011;53653;52.188;8.602;2023-03-01T03:13:03;29.25;;;14.10;;
66739;SDS011;53653;52.188;8.602;2023-03-01T03:15:31;28.15;;;13.98;;
66739;SDS011;53653;52.188;8.602;2023-03-01T03:18:01;28.52;;;13.88;;
66739;SDS011;53653;52.188;8.602;2023-03-01T03:20:28;27.43;;;13.73;;
66739;SDS011;53653;52.188;8.602;2023-03-01T03:22:55;28.35;;;13.30;;
66739;SDS011;53653;52.188;8.602;2023-03-01T03:25:21;28.60;;;12.95;;
66739;SDS011;53653;52.188;8.602;2023-03-01T03:27:49;29.17;;;13.68;;
66739;SDS011;53653;52.188;8.602;2023-03-01T03:30:32;25.67;;;13.25;;
66739;SDS011;53653;52.188;8.602;2023-03-01T03:32:58;31.23;;;13.90;;
66739;SDS011;53653;52.188;8.602;2023-03-01T03:35:34;29.02;;;14.27;;
66739;SDS011;53653;52.188;8.602;2023-03-01T03:38:05;27.70;;;13.13;;
66739;SDS011;53653;52.188;8.602;2023-03-01T03:40:35;27.05;;;12.90;;
66739;SDS011;53653;52.188;8.602;2023-03-01T03:43:03;26.70;;;14.20;;
66739;SDS011;53653;52.188;8.602;2023-03-01T03:45:30;27.93;;;13.53;;
66739;SDS011;53653;52.188;8.602;2023-03-01T03:47:58;30.33;;;13.88;;
66739;SDS011;53653;52.188;8.602;2023-03-01T03:50:25;27.33;;;13.15;;
66739;SDS011;53653;52.188;8.602;2023-03-01T03:52:50;26.60;;;13.93;;
66739;SDS011;53653;52.188;8.602;2023-03-01T03:55:16;23.40;;;12.18;;
66739;SDS011;53653;52.188;8.602;2023-03-01T03:57:45;24.13;;;12.50;;
66739;SDS011;53653;52.188;8.602;2023-03-01T04:00:20;27.10;;;12.57;;
66739;SDS011;53653;52.188;8.602;2023-03-01T04:02:49;26.50;;;13.35;;
66739;SDS011;53653;52.188;8.602;2023-03-01T04:05:16;26.17;;;12.55;;
66739;SDS011;53653;52.188;8.602;2023-03-01T04:07:43;25.15;;;12.82;;
66739;SDS011;53653;52.188;8.602;2023-03-01T04:10:11;28.08;;;12.65;;
66739;SDS011;53653;52.188;8.602;2023-03-01T04:12:39;25.53;;;12.80;;
66739;SDS011;53653;52.188;8.602;2023-03-01T04:15:06;25.55;;;12.55;;
66739;SDS011;53653;52.188;8.602;2023-03-01T04:17:42;27.30;;;12.70;;
66739;SDS011;53653;52.188;8.602;2023-03-01T04:20:09;25.83;;;11.80;;
66739;SDS011;53653;52.188;8.602;2023-03-01T04:22:42;26.65;;;12.35;;
66739;SDS011;53653;52.188;8.602;2023-03-01T04:25:08;25.20;;;12.18;;
66739;SDS011;53653;52.188;8.602;2023-03-01T04:27:34;23.83;;;11.77;;
66739;SDS011;53653;52.188;8.602;2023-03-01T04:30:01;24.70;;;12.63;;
66739;SDS011;53653;52.188;8.602;2023-03-01T04:32:28;24.27;;;11.85;;
66739;SDS011;53653;52.188;8.602;2023-03-01T04:34:54;27.75;;;13.52;;
66739;SDS011;53653;52.188;8.602;2023-03-01T04:37:20;28.17;;;12.57;;
66739;SDS011;53653;52.188;8.602;2023-03-01T04:39:46;26.05;;;12.32;;
66739;SDS011;53653;52.188;8.602;2023-03-01T04:42:13;24.80;;;12.48;;
66739;SDS011;53653;52.188;8.602;2023-03-01T04:44:42;26.30;;;11.43;;
66739;SDS011;53653;52.188;8.602;2023-03-01T04:47:08;27.13;;;12.57;;
66739;SDS011;53653;52.188;8.602;2023-03-01T04:49:34;28.58;;;12.45;;
66739;SDS011;53653;52.188;8.602;2023-03-01T04:51:59;26.07;;;12.17;;
66739;SDS011;53653;52.188;8.602;2023-03-01T04:54:30;23.98;;;11.48;;
66739;SDS011;53653;52.188;8.602;2023-03-01T04:56:56;23.25;;;12.60;;
66739;SDS011;53653;52.188;8.602;2023-03-01T04:59:22;26.00;;;12.10;;
66739;SDS011;53653;52.188;8.602;2023-03-01T05:01:52;24.10;;;11.90;;
66739;SDS011;53653;52.188;8.602;2023-03-01T05:04:23;25.33;;;11.55;;
66739;SDS011;53653;52.188;8.602;2023-03-01T05:06:48;25.30;;;12.33;;
66739;SDS011;53653;52.188;8.602;2023-03-01T05:09:14;25.92;;;12.32;;
66739;SDS011;53653;52.188;8.602;2023-03-01T05:11:40;28.00;;;12.82;;
66739;SDS011;53653;52.188;8.602;2023-03-01T05:14:06;32.47;;;12.80;;
66739;SDS011;53653;52.188;8.602;2023-03-01T05:16:32;27.55;;;12.93;;
66739;SDS011;53653;52.188;8.602;2023-03-01T05:18:58;28.30;;;12.93;;
66739;SDS011;53653;52.188;8.602;2023-03-01T05:21:24;27.67;;;12.02;;
66739;SDS011;53653;52.188;8.602;2023-03-01T05:23:50;23.75;;;11.82;;
66739;SDS011;53653;52.188;8.602;2023-03-01T05:26:17;23.67;;;12.13;;
66739;SDS011;53653;52.188;8.602;2023-03-01T05:28:44;24.60;;;13.07;;
66739;SDS011;53653;52.188;8.602;2023-03-01T05:31:10;27.20;;;12.40;;
66739;SDS011;53653;52.188;8.602;2023-03-01T05:33:39;31.80;;;13.45;;
66739;SDS011;53653;52.188;8.602;2023-03-01T05:36:06;27.38;;;13.32;;
66739;SDS011;53653;52.188;8.602;2023-03-01T05:38:33;31.67;;;14.13;;
66739;SDS011;53653;52.188;8.602;2023-03-01T05:40:59;28.23;;;13.70;;
66739;SDS011;53653;52.188;8.602;2023-03-01T05:43:24;28.52;;;13.55;;
66739;SDS011;53653;52.188;8.602;2023-03-01T05:45:50;24.40;;;12.43;;
66739;SDS011;53653;52.188;8.602;2023-03-01T05:48:16;26.23;;;13.63;;
66739;SDS011;53653;52.188;8.602;2023-03-01T05:50:44;25.38;;;12.52;;
66739;SDS011;53653;52.188;8.602;2023-03-01T05:55:37;25.10;;;12.48;;
66739;SDS011;53653;52.188;8.602;2023-03-01T05:58:05;25.27;;;13.13;;
66739;SDS011;53653;52.188;8.602;2023-03-01T06:00:32;23.98;;;11.80;;
66739;SDS011;53653;52.188;8.602;2023-03-01T06:02:59;27.38;;;12.95;;
66739;SDS011;53653;52.188;8.602;2023-03-01T06:05:25;28.80;;;13.38;;
66739;SDS011;53653;52.188;8.602;2023-03-01T06:07:51;25.85;;;12.98;;
66739;SDS011;53653;52.188;8.602;2023-03-01T06:10:18;28.07;;;12.43;;
66739;SDS011;53653;52.188;8.602;2023-03-01T06:12:45;24.63;;;12.60;;
66739;SDS011;53653;52.188;8.602;2023-03-01T06:15:11;27.27;;;13.30;;
66739;SDS011;53653;52.188;8.602;2023-03-01T06:17:39;24.90;;;12.55;;
66739;SDS011;53653;52.188;8.602;2023-03-01T06:20:10;29.55;;;13.15;;
66739;SDS011;53653;52.188;8.602;2023-03-01T06:22:37;26.47;;;12.47;;
66739;SDS011;53653;52.188;8.602;2023-03-01T06:25:03;23.58;;;12.07;;
66739;SDS011;53653;52.188;8.602;2023-03-01T06:27:29;23.83;;;12.93;;
66739;SDS011;53653;52.188;8.602;2023-03-01T06:29:54;27.47;;;11.73;;
66739;SDS011;53653;52.188;8.602;2023-03-01T06:32:20;26.73;;;14.00;;
66739;SDS011;53653;52.188;8.602;2023-03-01T06:34:45;25.97;;;13.07;;
66739;SDS011;53653;52.188;8.602;2023-03-01T06:37:11;25.13;;;13.17;;
66739;SDS011;53653;52.188;8.602;2023-03-01T06:39:36;26.27;;;12.07;;
66739;SDS011;53653;52.188;8.602;2023-03-01T06:42:02;26.13;;;13.80;;
66739;SDS011;53653;52.188;8.602;2023-03-01T06:44:27;23.33;;;12.52;;
66739;SDS011;53653;52.188;8.602;2023-03-01T06:46:53;25.80;;;12.47;;
66739;SDS011;53653;52.188;8.602;2023-03-01T06:49:19;24.75;;;12.18;;
66739;SDS011;53653;52.188;8.602;2023-03-01T06:51:45;24.60;;;11.60;;
66739;SDS011;53653;52.188;8.602;2023-03-01T06:54:11;22.27;;;11.05;;
66739;SDS011;53653;52.188;8.602;2023-03-01T06:56:36;24.75;;;11.93;;
66739;SDS011;53653;52.188;8.602;2023-03-01T06:59:02;26.60;;;12.27;;
66739;SDS011;53653;52.188;8.602;2023-03-01T07:01:28;23.47;;;12.10;;
66739;SDS011;53653;52.188;8.602;2023-03-01T07:03:54;28.77;;;12.88;;
66739;SDS011;53653;52.188;8.602;2023-03-01T07:06:20;24.53;;;12.27;;
66739;SDS011;53653;52.188;8.602;2023-03-01T07:08:46;27.05;;;12.15;;
66739;SDS011;53653;52.188;8.602;2023-03-01T07:11:11;24.58;;;11.95;;
66739;SDS011;53653;52.188;8.602;2023-03-01T07:13:37;21.80;;;12.33;;
66739;SDS011;53653;52.188;8.602;2023-03-01T07:16:02;25.53;;;13.03;;
66739;SDS011;53653;52.188;8.602;2023-03-01T07:18:28;29.52;;;11.82;;
66739;SDS011;53653;52.188;8.602;2023-03-01T07:20:53;30.00;;;13.23;;
66739;SDS011;53653;52.188;8.602;2023-03-01T07:23:19;20.77;;;10.73;;
66739;SDS011;53653;52.188;8.602;2023-03-01T07:25:50;27.67;;;13.57;;
66739;SDS011;53653;52.188;8.602;2023-03-01T07:28:17;23.23;;;11.63;;
66739;SDS011;53653;52.188;8.602;2023-03-01T07:30:42;26.88;;;13.70;;
66739;SDS011;53653;52.188;8.602;2023-03-01T07:33:07;32.90;;;13.10;;
66739;SDS011;53653;52.188;8.602;2023-03-01T07:35:33;26.57;;;12.50;;
66739;SDS011;53653;52.188;8.602;2023-03-01T07:37:58;27.17;;;11.77;;
66739;SDS011;53653;52.188;8.602;2023-03-01T07:40:24;22.92;;;11.45;;
66739;SDS011;53653;52.188;8.602;2023-03-01T07:42:54;22.93;;;9.30;;
66739;SDS011;53653;52.188;8.602;2023-03-01T07:45:20;25.77;;;11.52;;
66739;SDS011;53653;52.188;8.602;2023-03-01T07:47:45;21.37;;;10.80;;
66739;SDS011;53653;52.188;8.602;2023-03-01T07:50:11;25.87;;;11.33;;
66739;SDS011;53653;52.188;8.602;2023-03-01T07:52:38;24.90;;;11.20;;
66739;SDS011;53653;52.188;8.602;2023-03-01T07:55:04;21.70;;;9.73;;
66739;SDS011;53653;52.188;8.602;2023-03-01T07:57:30;21.20;;;9.48;;
66739;SDS011;53653;52.188;8.602;2023-03-01T07:59:56;21.83;;;10.65;;
66739;SDS011;53653;52.188;8.602;2023-03-01T08:02:22;28.80;;;12.23;;
66739;SDS011;53653;52.188;8.602;2023-03-01T08:04:48;24.40;;;11.82;;
66739;SDS011;53653;52.188;8.602;2023-03-01T08:07:13;23.97;;;11.60;;
66739;SDS011;53653;52.188;8.602;2023-03-01T08:09:39;22.50;;;10.85;;
66739;SDS011;53653;52.188;8.602;2023-03-01T08:12:04;21.60;;;10.50;;
66739;SDS011;53653;52.188;8.602;2023-03-01T08:14:30;22.85;;;10.75;;
66739;SDS011;53653;52.188;8.602;2023-03-01T08:16:59;21.37;;;9.57;;
66739;SDS011;53653;52.188;8.602;2023-03-01T08:19:24;26.23;;;10.98;;
66739;SDS011;53653;52.188;8.602;2023-03-01T08:21:50;20.47;;;8.63;;
66739;SDS011;53653;52.188;8.602;2023-03-01T08:24:15;17.77;;;8.93;;
66739;SDS011;53653;52.188;8.602;2023-03-01T08:26:41;23.20;;;10.50;;
66739;SDS011;53653;52.188;8.602;2023-03-01T08:29:06;23.97;;;11.63;;
66739;SDS011;53653;52.188;8.602;2023-03-01T08:31:36;20.07;;;9.63;;
66739;SDS011;53653;52.188;8.602;2023-03-01T08:34:11;19.38;;;10.77;;
66739;SDS011;53653;52.188;8.602;2023-03-01T08:36:38;21.50;;;10.45;;
66739;SDS011;53653;52.188;8.602;2023-03-01T08:39:05;14.02;;;7.20;;
66739;SDS011;53653;52.188;8.602;2023-03-01T08:41:31;22.37;;;10.57;;
66739;SDS011;53653;52.188;8.602;2023-03-01T08:43:57;18.88;;;8.60;;
66739;SDS011;53653;52.188;8.602;2023-03-01T08:46:28;20.90;;;10.23;;
66739;SDS011;53653;52.188;8.602;2023-03-01T08:48:56;21.13;;;10.27;;
66739;SDS011;53653;52.188;8.602;2023-03-01T08:51:22;22.02;;;9.73;;
66739;SDS011;53653;52.188;8.602;2023-03-01T08:53:49;21.83;;;10.13;;
66739;SDS011;53653;52.188;8.602;2023-03-01T08:56:14;19.58;;;9.63;;
66739;SDS011;53653;52.188;8.602;2023-03-01T08:58:43;20.43;;;9.37;;
66739;SDS011;53653;52.188;8.602;2023-03-01T09:01:13;12.82;;;5.25;;
66739;SDS011;53653;52.188;8.602;2023-03-01T09:03:41;19.30;;;8.27;;
66739;SDS011;53653;52.188;8.602;2023-03-01T09:06:07;15.30;;;8.10;;
66739;SDS011;53653;52.188;8.602;2023-03-01T09:08:43;17.30;;;9.13;;
66739;SDS011;53653;52.188;8.602;2023-03-01T09:11:10;20.33;;;9.05;;
66739;SDS011;53653;52.188;8.602;2023-03-01T09:13:37;16.98;;;8.85;;
66739;SDS011;53653;52.188;8.602;2023-03-01T09:16:03;17.63;;;8.82;;
66739;SDS011;53653;52.188;8.602;2023-03-01T09:18:31;10.70;;;4.23;;
66739;SDS011;53653;52.188;8.602;2023-03-01T09:21:00;16.52;;;8.07;;
66739;SDS011;53653;52.188;8.602;2023-03-01T09:23:37;15.95;;;7.80;;
66739;SDS011;53653;52.188;8.602;2023-03-01T09:26:05;17.58;;;9.23;;
66739;SDS011;53653;52.188;8.602;2023-03-01T09:28:31;21.73;;;9.63;;
66739;SDS011;53653;52.188;8.602;2023-03-01T09:30:57;16.23;;;7.68;;
66739;SDS011;53653;52.188;8.602;2023-03-01T09:33:24;16.03;;;7.53;;
66739;SDS011;53653;52.188;8.602;2023-03-01T09:35:50;13.30;;;6.13;;
66739;SDS011;53653;52.188;8.602;2023-03-01T09:38:20;16.10;;;7.07;;
66739;SDS011;53653;52.188;8.602;2023-03-01T09:40:45;11.67;;;6.27;;
66739;SDS011;53653;52.188;8.602;2023-03-01T09:43:59;15.97;;;6.97;;
66739;SDS011;53653;52.188;8.602;2023-03-01T09:46:04;13.52;;;5.43;;
66739;SDS011;53653;52.188;8.602;2023-03-01T09:48:35;15.10;;;6.10;;
66739;SDS011;53653;52.188;8.602;2023-03-01T09:51:09;10.73;;;5.28;;
66739;SDS011;53653;52.188;8.602;2023-03-01T09:53:40;18.87;;;7.50;;
66739;SDS011;53653;52.188;8.602;2023-03-01T09:56:11;18.58;;;6.95;;
66739;SDS011;53653;52.188;8.602;2023-03-01T09:59:06;17.08;;;7.20;;
66739;SDS011;53653;52.188;8.602;2023-03-01T10:09:37;16.13;;;7.18;;
66739;SDS011;53653;52.188;8.602;2023-03-01T10:12:08;16.25;;;7.07;;
66739;SDS011;53653;52.188;8.602;2023-03-01T10:19:52;15.60;;;7.20;;
66739;SDS011;53653;52.188;8.602;2023-03-01T10:22:26;13.90;;;5.75;;
66739;SDS011;53653;52.188;8.602;2023-03-01T10:24:53;14.30;;;6.32;;
66739;SDS011;53653;52.188;8.602;2023-03-01T10:27:22;15.17;;;7.43;;
66739;SDS011;53653;52.188;8.602;2023-03-01T10:30:05;13.43;;;6.28;;
66739;SDS011;53653;52.188;8.602;2023-03-01T10:32:45;13.10;;;5.22;;
66739;SDS011;53653;52.188;8.602;2023-03-01T10:35:24;12.85;;;5.28;;
66739;SDS011;53653;52.188;8.602;2023-03-01T10:40:34;15.50;;;5.30;;
66739;SDS011;53653;52.188;8.602;2023-03-01T10:43:02;11.88;;;5.63;;
66739;SDS011;53653;52.188;8.602;2023-03-01T10:48:08;14.52;;;6.15;;
66739;SDS011;53653;52.188;8.602;2023-03-01T10:50:38;12.48;;;4.70;;
66739;SDS011;53653;52.188;8.602;2023-03-01T10:53:18;14.43;;;5.47;;
66739;SDS011;53653;52.188;8.602;2023-03-01T10:55:48;12.32;;;4.93;;
66739;SDS011;53653;52.188;8.602;2023-03-01T10:58:23;17.17;;;6.05;;
66739;SDS011;53653;52.188;8.602;2023-03-01T11:00:52;13.43;;;5.47;;
66739;SDS011;53653;52.188;8.602;2023-03-01T11:03:21;11.00;;;5.10;;
66739;SDS011;53653;52.188;8.602;2023-03-01T11:05:56;15.50;;;5.43;;
66739;SDS011;53653;52.188;8.602;2023-03-01T11:08:38;17.00;;;5.75;;
66739;SDS011;53653;52.188;8.602;2023-03-01T11:16:31;17.52;;;6.25;;
66739;SDS011;53653;52.188;8.602;2023-03-01T11:21:34;11.23;;;5.25;;
66739;SDS011;53653;52.188;8.602;2023-03-01T11:24:03;14.20;;;5.67;;
66739;SDS011;53653;52.188;8.602;2023-03-01T11:26:32;9.45;;;3.63;;
66739;SDS011;53653;52.188;8.602;2023-03-01T11:29:04;12.27;;;5.40;;
66739;SDS011;53653;52.188;8.602;2023-03-01T11:31:36;15.13;;;5.78;;
66739;SDS011;53653;52.188;8.602;2023-03-01T11:34:11;18.08;;;8.65;;
66739;SDS011;53653;52.188;8.602;2023-03-01T11:37:16;16.50;;;5.80;;
66739;SDS011;53653;52.188;8.602;2023-03-01T11:39:39;12.07;;;5.57;;
66739;SDS011;53653;52.188;8.602;2023-03-01T11:44:54;11.63;;;5.35;;
66739;SDS011;53653;52.188;8.602;2023-03-01T11:50:01;11.67;;;5.13;;
66739;SDS011;53653;52.188;8.602;2023-03-01T11:52:43;12.07;;;4.55;;
66739;SDS011;53653;52.188;8.602;2023-03-01T12:03:08;15.17;;;6.80;;
66739;SDS011;53653;52.188;8.602;2023-03-01T12:13:23;12.27;;;5.20;;
66739;SDS011;53653;52.188;8.602;2023-03-01T12:16:13;13.67;;;6.07;;
66739;SDS011;53653;52.188;8.602;2023-03-01T12:29:40;12.37;;;5.77;;
66739;SDS011;53653;52.188;8.602;2023-03-01T12:38:15;13.73;;;5.40;;
66739;SDS011;53653;52.188;8.602;2023-03-01T12:49:08;10.35;;;3.78;;
66739;SDS011;53653;52.188;8.602;2023-03-01T12:51:42;11.38;;;5.15;;
66739;SDS011;53653;52.188;8.602;2023-03-01T12:54:16;14.00;;;5.05;;
66739;SDS011;53653;52.188;8.602;2023-03-01T12:56:50;12.53;;;4.97;;
66739;SDS011;53653;52.188;8.602;2023-03-01T12:59:23;11.15;;;4.28;;
66739;SDS011;53653;52.188;8.602;2023-03-01T13:17:55;10.03;;;3.77;;
66739;SDS011;53653;52.188;8.602;2023-03-01T13:20:27;10.93;;;5.47;;
66739;SDS011;53653;52.188;8.602;2023-03-01T13:23:06;10.98;;;4.40;;
66739;SDS011;53653;52.188;8.602;2023-03-01T13:25:32;13.10;;;5.35;;
66739;SDS011;53653;52.188;8.602;2023-03-01T13:31:01;15.40;;;5.15;;
66739;SDS011;53653;52.188;8.602;2023-03-01T13:35:53;11.53;;;5.33;;
66739;SDS011;53653;52.188;8.602;2023-03-01T13:41:03;12.10;;;5.43;;
66739;SDS011;53653;52.188;8.602;2023-03-01T13:43:36;13.85;;;5.40;;
66739;SDS011;53653;52.188;8.602;2023-03-01T13:48:41;10.18;;;5.15;;
66739;SDS011;53653;52.188;8.602;2023-03-01T13:51:09;13.50;;;4.75;;
66739;SDS011;53653;52.188;8.602;2023-03-01T13:53:39;11.30;;;4.90;;
66739;SDS011;53653;52.188;8.602;2023-03-01T13:56:09;10.20;;;4.00;;
66739;SDS011;53653;52.188;8.602;2023-03-01T13:59:21;9.55;;;4.13;;
66739;SDS011;53653;52.188;8.602;2023-03-01T14:01:33;11.13;;;4.78;;
66739;SDS011;53653;52.188;8.602;2023-03-01T14:04:00;15.13;;;5.53;;
66739;SDS011;53653;52.188;8.602;2023-03-01T14:06:28;13.13;;;4.73;;
66739;SDS011;53653;52.188;8.602;2023-03-01T14:09:08;10.40;;;4.78;;
66739;SDS011;53653;52.188;8.602;2023-03-01T14:19:59;11.03;;;5.00;;
66739;SDS011;53653;52.188;8.602;2023-03-01T14:22:33;12.13;;;4.45;;
66739;SDS011;53653;52.188;8.602;2023-03-01T14:25:45;14.25;;;5.03;;
66739;SDS011;53653;52.188;8.602;2023-03-01T14:30:38;11.10;;;5.47;;
66739;SDS011;53653;52.188;8.602;2023-03-01T14:33:17;8.10;;;3.60;;
66739;SDS011;53653;52.188;8.602;2023-03-01T14:38:21;8.27;;;3.95;;
66739;SDS011;53653;52.188;8.602;2023-03-01T14:41:08;9.77;;;4.30;;
66739;SDS011;53653;52.188;8.602;2023-03-01T14:43:38;9.15;;;4.15;;
66739;SDS011;53653;52.188;8.602;2023-03-01T14:46:06;10.60;;;4.40;;
66739;SDS011;53653;52.188;8.602;2023-03-01T14:48:41;9.82;;;3.30;;
66739;SDS011;53653;52.188;8.602;2023-03-01T14:51:07;11.23;;;4.23;;
66739;SDS011;53653;52.188;8.602;2023-03-01T14:53:32;9.45;;;3.72;;
66739;SDS011;53653;52.188;8.602;2023-03-01T14:56:01;12.07;;;4.33;;
66739;SDS011;53653;52.188;8.602;2023-03-01T14:58:31;10.68;;;4.30;;
66739;SDS011;53653;52.188;8.602;2023-03-01T15:00:59;8.37;;;3.60;;
66739;SDS011;53653;52.188;8.602;2023-03-01T15:03:36;9.10;;;3.80;;
66739;SDS011;53653;52.188;8.602;2023-03-01T15:06:06;9.65;;;3.35;;
66739;SDS011;53653;52.188;8.602;2023-03-01T15:08:33;9.98;;;3.88;;
66739;SDS011;53653;52.188;8.602;2023-03-01T15:13:38;10.00;;;3.80;;
66739;SDS011;53653;52.188;8.602;2023-03-01T15:19:04;8.68;;;3.22;;
66739;SDS011;53653;52.188;8.602;2023-03-01T15:21:32;9.50;;;3.58;;
66739;SDS011;53653;52.188;8.602;2023-03-01T15:26:45;7.33;;;3.10;;
66739;SDS011;53653;52.188;8.602;2023-03-01T15:29:20;12.25;;;3.47;;
66739;SDS011;53653;52.188;8.602;2023-03-01T15:31:57;10.38;;;3.53;;
66739;SDS011;53653;52.188;8.602;2023-03-01T15:36:58;11.35;;;4.00;;
66739;SDS011;53653;52.188;8.602;2023-03-01T15:39:42;8.80;;;3.83;;
66739;SDS011;53653;52.188;8.602;2023-03-01T15:42:35;9.20;;;3.40;;
66739;SDS011;53653;52.188;8.602;2023-03-01T15:47:34;10.73;;;3.28;;
66739;SDS011;53653;52.188;8.602;2023-03-01T15:50:01;13.48;;;3.67;;
66739;SDS011;53653;52.188;8.602;2023-03-01T15:52:34;7.80;;;3.27;;
66739;SDS011;53653;52.188;8.602;2023-03-01T15:55:25;7.85;;;3.28;;
66739;SDS011;53653;52.188;8.602;2023-03-01T15:58:17;9.68;;;3.63;;
66739;SDS011;53653;52.188;8.602;2023-03-01T16:00:43;9.05;;;3.58;;
66739;SDS011;53653;52.188;8.602;2023-03-01T16:03:10;9.88;;;4.13;;
66739;SDS011;53653;52.188;8.602;2023-03-01T16:05:37;9.27;;;4.10;;
66739;SDS011;53653;52.188;8.602;2023-03-01T16:08:03;9.85;;;3.53;;
66739;SDS011;53653;52.188;8.602;2023-03-01T16:10:30;6.80;;;2.97;;
66739;SDS011;53653;52.188;8.602;2023-03-01T16:12:57;8.35;;;3.50;;
66739;SDS011;53653;52.188;8.602;2023-03-01T16:15:24;10.57;;;3.77;;
66739;SDS011;53653;52.188;8.602;2023-03-01T16:17:54;7.90;;;3.22;;
66739;SDS011;53653;52.188;8.602;2023-03-01T16:20:20;9.15;;;3.85;;
66739;SDS011;53653;52.188;8.602;2023-03-01T16:22:47;8.55;;;3.50;;
66739;SDS011;53653;52.188;8.602;2023-03-01T16:25:13;10.43;;;4.33;;
66739;SDS011;53653;52.188;8.602;2023-03-01T16:27:44;17.27;;;3.97;;
66739;SDS011;53653;52.188;8.602;2023-03-01T16:30:11;11.10;;;3.70;;
66739;SDS011;53653;52.188;8.602;2023-03-01T16:32:38;10.07;;;3.70;;
66739;SDS011;53653;52.188;8.602;2023-03-01T16:35:05;10.63;;;4.18;;
66739;SDS011;53653;52.188;8.602;2023-03-01T16:37:32;8.43;;;3.15;;
66739;SDS011;53653;52.188;8.602;2023-03-01T16:39:58;10.45;;;3.97;;
66739;SDS011;53653;52.188;8.602;2023-03-01T16:42:24;9.70;;;3.67;;
66739;SDS011;53653;52.188;8.602;2023-03-01T16:44:54;13.50;;;3.97;;
66739;SDS011;53653;52.188;8.602;2023-03-01T16:47:20;9.80;;;3.92;;
66739;SDS011;53653;52.188;8.602;2023-03-01T16:49:46;11.50;;;4.25;;
66739;SDS011;53653;52.188;8.602;2023-03-01T16:52:12;11.13;;;4.33;;
66739;SDS011;53653;52.188;8.602;2023-03-01T16:54:38;15.23;;;4.83;;